Plattsmouth, Nebraska
Current Conditions -  °F | °C
As of 2:15 AM on Monday 24 Nov 2014 (Local Time) from KPMV Reporting Station
Clear Clear  
Wind Chill: 18°   Ceiling: Unl
Heat Index: 30°   Visibility: 10mi
Dew Point: 20°   Wind: 18mph
Humidity: 66%   Direction: 310°NW
Pressure: 29.53"   Gusts: 29mph
Location:  41.01°N, 95.88°W
Report Text: KPMV 240815Z AUTO 31016G25KT 10SM CLR M01/M07 A2953 RMK AO2 T10121068
Loading
Personal Weather Stations






























Interactive Weather Map New forecast layout! Learn more

10-Day Weather Forecast

Advertisements
Track Severe Weather on mobile